createdAt,value
2023-01-02T00:01:07.918Z,13.02
2023-01-02T00:03:34.980Z,13.01
2023-01-02T00:06:06.543Z,12.98
2023-01-02T00:08:33.720Z,12.93
2023-01-02T00:11:00.769Z,12.89
2023-01-02T00:13:27.768Z,12.83
2023-01-02T00:15:54.756Z,12.79
2023-01-02T00:18:21.768Z,12.73
2023-01-02T00:20:48.722Z,12.66
2023-01-02T00:23:15.690Z,12.61
2023-01-02T00:25:42.886Z,12.58
2023-01-02T00:28:09.823Z,12.55
2023-01-02T00:30:39.839Z,12.54
2023-01-02T00:33:07.787Z,12.53
2023-01-02T00:35:38.216Z,12.52
2023-01-02T00:38:06.774Z,12.50
2023-01-02T00:40:34.133Z,12.49
2023-01-02T00:43:01.777Z,12.49
2023-01-02T00:45:28.873Z,12.50
2023-01-02T00:47:55.863Z,12.50
2023-01-02T00:50:23.009Z,12.50
2023-01-02T00:52:49.944Z,12.52
2023-01-02T00:55:16.967Z,12.52
2023-01-02T00:57:43.913Z,12.53
2023-01-02T01:00:11.717Z,12.54
2023-01-02T01:02:38.874Z,12.55
2023-01-02T01:05:06.650Z,12.56
2023-01-02T01:07:33.587Z,12.57
2023-01-02T01:10:00.511Z,12.58
2023-01-02T01:12:27.464Z,12.59
2023-01-02T01:14:54.489Z,12.62
2023-01-02T01:17:21.452Z,12.63
2023-01-02T01:19:48.421Z,12.64
2023-01-02T01:22:15.447Z,12.64
2023-01-02T01:24:42.433Z,12.65
2023-01-02T01:27:09.439Z,12.67
2023-01-02T01:29:36.350Z,12.67
2023-01-02T01:32:03.454Z,12.68
2023-01-02T01:34:30.377Z,12.68
2023-01-02T01:36:57.329Z,12.70
2023-01-02T01:39:24.261Z,12.69
2023-01-02T01:41:51.189Z,12.67
2023-01-02T01:44:54.196Z,12.65
2023-01-02T01:47:48.026Z,12.66
2023-01-02T01:50:35.531Z,12.63
2023-01-02T01:53:16.003Z,12.62
2023-01-02T01:55:54.059Z,12.62
2023-01-02T01:58:35.290Z,12.61
2023-01-02T02:01:03.922Z,12.62
2023-01-02T02:03:33.865Z,12.61
2023-01-02T02:06:03.488Z,12.61
2023-01-02T02:09:00.784Z,12.60
2023-01-02T02:11:28.547Z,12.60
2023-01-02T02:14:02.164Z,12.60
2023-01-02T02:16:49.901Z,12.59
2023-01-02T02:20:06.196Z,12.59
2023-01-02T02:23:07.862Z,12.59
2023-01-02T02:26:14.164Z,12.59
2023-01-02T02:28:55.949Z,12.59
2023-01-02T02:31:47.184Z,12.59
2023-01-02T02:34:27.492Z,12.59
2023-01-02T02:37:29.161Z,12.58
2023-01-02T02:40:26.344Z,12.58
2023-01-02T02:43:14.795Z,12.58
2023-01-02T02:45:58.325Z,12.58
2023-01-02T02:48:53.943Z,12.58
2023-01-02T02:51:41.676Z,12.59
2023-01-02T02:54:39.751Z,12.60
2023-01-02T02:57:08.649Z,12.63
2023-01-02T02:59:37.516Z,12.63
2023-01-02T03:02:05.547Z,12.65
2023-01-02T03:04:33.067Z,12.69
2023-01-02T03:07:08.490Z,12.73
2023-01-02T03:09:57.187Z,12.77
2023-01-02T03:13:04.034Z,12.80
2023-01-02T03:16:03.216Z,12.85
2023-01-02T03:18:35.198Z,12.87
2023-01-02T03:21:11.404Z,12.90
2023-01-02T03:23:49.412Z,12.93
2023-01-02T03:26:22.121Z,12.98
2023-01-02T03:28:54.626Z,13.01
2023-01-02T03:31:38.543Z,13.07
2023-01-02T03:34:37.829Z,13.11
2023-01-02T03:40:42.738Z,13.19
2023-01-02T03:43:30.020Z,13.21
2023-01-02T03:50:25.103Z,13.26
2023-01-02T03:53:02.452Z,13.29
2023-01-02T03:59:31.822Z,13.31
2023-01-02T04:02:30.136Z,13.32
2023-01-02T04:05:32.757Z,13.33
2023-01-02T04:08:42.278Z,13.33
2023-01-02T04:11:45.345Z,13.33
2023-01-02T04:15:01.280Z,13.32
2023-01-02T04:18:01.284Z,13.32
2023-01-02T04:24:18.115Z,13.33
2023-01-02T04:27:53.926Z,13.34
2023-01-02T04:35:08.912Z,13.38
2023-01-02T04:38:05.851Z,13.39
2023-01-02T04:40:43.150Z,13.41
2023-01-02T04:43:43.357Z,13.44
2023-01-02T04:46:41.061Z,13.44
2023-01-02T04:49:30.324Z,13.46
2023-01-02T04:52:35.029Z,13.47
2023-01-02T04:55:17.282Z,13.49
2023-01-02T04:58:04.810Z,13.50
2023-01-02T05:01:05.076Z,13.51
2023-01-02T05:03:51.272Z,13.52
2023-01-02T05:07:02.940Z,13.55
2023-01-02T05:10:09.032Z,13.57
2023-01-02T05:12:49.635Z,13.61
2023-01-02T05:15:49.093Z,13.63
2023-01-02T05:18:30.206Z,13.65
2023-01-02T05:21:35.649Z,13.68
2023-01-02T05:24:22.794Z,13.71
2023-01-02T05:27:37.924Z,13.68
2023-01-02T05:30:25.982Z,13.67
2023-01-02T05:33:09.730Z,13.66
2023-01-02T05:35:46.371Z,13.63
2023-01-02T05:38:28.270Z,13.62
2023-01-02T05:41:17.186Z,13.59
2023-01-02T05:43:57.794Z,13.60
2023-01-02T05:46:53.875Z,13.57
2023-01-02T05:49:48.017Z,13.55
2023-01-02T05:55:45.153Z,13.53
2023-01-02T05:58:24.823Z,13.51
2023-01-02T06:01:09.239Z,13.53
2023-01-02T06:03:48.031Z,13.53
2023-01-02T06:06:50.515Z,13.53
2023-01-02T06:09:41.331Z,13.55
2023-01-02T06:12:50.934Z,13.58
2023-01-02T06:15:31.046Z,13.61
2023-01-02T06:18:11.144Z,13.63
2023-01-02T06:20:43.506Z,13.63
2023-01-02T06:23:26.232Z,13.63
2023-01-02T06:26:19.647Z,13.63
2023-01-02T06:29:01.816Z,13.62
2023-01-02T06:32:02.145Z,13.61
2023-01-02T06:34:50.875Z,13.64
2023-01-02T06:37:37.702Z,13.66
2023-01-02T06:40:08.919Z,13.70
2023-01-02T06:42:42.999Z,13.73
2023-01-02T06:45:34.492Z,13.75
2023-01-02T06:48:09.613Z,13.81
2023-01-02T06:50:48.495Z,13.83
2023-01-02T06:53:30.777Z,13.86
2023-01-02T06:56:11.817Z,13.88
2023-01-02T06:58:45.927Z,13.90
2023-01-02T07:01:24.957Z,13.93
2023-01-02T07:04:06.252Z,13.94
2023-01-02T07:06:45.131Z,13.96
2023-01-02T07:09:19.906Z,13.95
2023-01-02T07:11:59.956Z,13.96
2023-01-02T07:14:37.757Z,13.96
2023-01-02T07:17:26.308Z,13.96
2023-01-02T07:20:02.345Z,13.97
2023-01-02T07:22:55.623Z,13.98
2023-01-02T07:25:26.771Z,14.00
2023-01-02T07:27:59.972Z,14.02
2023-01-02T07:30:34.280Z,14.04
2023-01-02T07:33:08.683Z,14.06
2023-01-02T07:35:50.289Z,14.09
2023-01-02T07:38:24.312Z,14.13
2023-01-02T07:41:00.175Z,14.17
2023-01-02T07:43:41.016Z,14.17
2023-01-02T07:46:16.349Z,14.17
2023-01-02T07:48:55.605Z,14.17
2023-01-02T07:51:32.939Z,14.19
2023-01-02T07:54:18.159Z,14.20
2023-01-02T07:59:51.278Z,14.29
2023-01-02T08:02:28.768Z,14.34
2023-01-02T08:05:08.519Z,14.39
2023-01-02T08:07:47.654Z,14.44
2023-01-02T08:10:24.670Z,14.49
2023-01-02T08:13:47.803Z,14.53
2023-01-02T08:16:26.164Z,14.59
2023-01-02T08:19:05.819Z,14.63
2023-01-02T08:21:39.860Z,14.64
2023-01-02T08:24:18.581Z,14.66
2023-01-02T08:27:03.427Z,14.68
2023-01-02T08:29:43.253Z,14.70
2023-01-02T08:32:28.791Z,14.73
2023-01-02T08:35:37.803Z,14.77
2023-01-02T08:38:16.324Z,14.81
2023-01-02T08:40:57.051Z,14.85
2023-01-02T08:43:36.185Z,14.88
2023-01-02T08:46:21.782Z,14.94
2023-01-02T08:48:59.299Z,14.97
2023-01-02T08:51:34.057Z,15.00
2023-01-02T08:54:41.380Z,15.05
2023-01-02T08:57:40.117Z,15.10
2023-01-02T09:00:26.469Z,15.13
2023-01-02T09:03:08.085Z,15.18
2023-01-02T09:05:55.618Z,15.23
2023-01-02T09:08:30.719Z,15.25
2023-01-02T09:11:31.960Z,15.30
2023-01-02T09:14:36.733Z,15.35
2023-01-02T09:17:24.603Z,15.37
2023-01-02T09:20:09.883Z,15.44
2023-01-02T09:22:50.338Z,15.51
2023-01-02T09:25:24.408Z,15.56
2023-01-02T09:28:16.226Z,15.59
2023-01-02T09:30:59.257Z,15.62
2023-01-02T09:33:50.865Z,15.68
2023-01-02T09:36:34.202Z,15.74
2023-01-02T09:39:14.123Z,15.77
2023-01-02T09:42:02.750Z,15.82
2023-01-02T09:45:08.866Z,15.90
2023-01-02T09:47:45.260Z,15.98
2023-01-02T09:50:38.341Z,16.00
2023-01-02T09:53:22.773Z,16.04
2023-01-02T09:56:35.672Z,16.06
2023-01-02T09:59:59.751Z,16.09
2023-01-02T10:02:37.759Z,16.14
2023-01-02T10:06:14.412Z,16.19
2023-01-02T10:09:30.531Z,16.26
2023-01-02T10:12:39.679Z,16.29
2023-01-02T10:15:20.804Z,16.33
2023-01-02T10:17:59.208Z,16.36
2023-01-02T10:20:41.179Z,16.39
2023-01-02T10:23:24.438Z,16.45
2023-01-02T10:26:18.786Z,16.53
2023-01-02T10:29:24.648Z,16.57
2023-01-02T10:32:31.831Z,16.60
2023-01-02T10:35:09.162Z,16.57
2023-01-02T10:37:48.389Z,16.56
2023-01-02T10:40:27.541Z,16.53
2023-01-02T10:43:08.874Z,16.50
2023-01-02T10:45:46.468Z,16.47
2023-01-02T10:48:24.184Z,16.44
2023-01-02T10:51:08.451Z,16.41
2023-01-02T10:54:29.965Z,16.33
2023-01-02T10:57:04.494Z,16.29
2023-01-02T10:59:35.899Z,16.29
2023-01-02T11:03:00.555Z,16.28
2023-01-02T11:05:44.682Z,16.28
2023-01-02T11:08:26.092Z,16.29
2023-01-02T11:11:25.767Z,16.29
2023-01-02T11:14:11.891Z,16.26
2023-01-02T11:16:59.286Z,16.20
2023-01-02T11:19:43.080Z,16.15
2023-01-02T11:22:29.251Z,16.06
2023-01-02T11:25:05.605Z,15.95
2023-01-02T11:27:40.727Z,15.88
2023-01-02T11:30:20.198Z,15.80
2023-01-02T11:32:47.142Z,15.75
2023-01-02T11:35:45.309Z,15.75
2023-01-02T11:38:29.827Z,15.72
2023-01-02T11:41:02.315Z,15.71
2023-01-02T11:43:51.986Z,15.68
2023-01-02T11:46:27.043Z,15.68
2023-01-02T11:49:01.007Z,15.68
2023-01-02T11:51:30.006Z,15.67
2023-01-02T11:54:00.487Z,15.67
2023-01-02T11:56:40.835Z,15.65
2023-01-02T11:59:26.310Z,15.70
2023-01-02T12:02:31.513Z,15.73
2023-01-02T12:04:58.586Z,15.75
2023-01-02T12:07:47.813Z,15.72
2023-01-02T12:10:43.588Z,15.71
2023-01-02T12:13:22.315Z,15.70
2023-01-02T12:16:40.379Z,15.66
2023-01-02T12:19:44.467Z,15.64
2023-01-02T12:22:47.930Z,15.64
2023-01-02T12:26:08.676Z,15.61
2023-01-02T12:29:15.151Z,15.59
2023-01-02T12:32:45.200Z,15.56
2023-01-02T12:35:37.140Z,15.55
2023-01-02T12:38:09.729Z,15.51
2023-01-02T12:41:17.328Z,15.46
2023-01-02T12:44:46.628Z,15.42
2023-01-02T12:47:22.347Z,15.38
2023-01-02T12:50:20.110Z,15.34
2023-01-02T12:53:09.304Z,15.30
2023-01-02T12:55:51.841Z,15.27
2023-01-02T12:58:30.866Z,15.21
2023-01-02T13:01:30.388Z,15.11
2023-01-02T13:04:14.159Z,15.04
2023-01-02T13:07:02.270Z,14.98
2023-01-02T13:09:48.335Z,14.91
2023-01-02T13:12:25.873Z,14.90
2023-01-02T13:14:55.066Z,14.89
2023-01-02T13:17:51.661Z,14.92
2023-01-02T13:20:43.307Z,14.92
2023-01-02T13:23:28.203Z,14.95
2023-01-02T13:26:07.601Z,15.01
2023-01-02T13:28:56.674Z,15.03
2023-01-02T13:34:29.508Z,15.04
2023-01-02T13:37:12.907Z,15.04
2023-01-02T13:39:39.834Z,15.03
2023-01-02T13:42:29.294Z,15.02
2023-01-02T13:45:00.843Z,15.00
2023-01-02T13:47:38.038Z,14.98
2023-01-02T13:50:32.167Z,14.94
2023-01-02T13:53:09.570Z,14.92
2023-01-02T13:55:40.236Z,14.92
2023-01-02T13:58:13.853Z,14.92
2023-01-02T14:00:56.503Z,14.91
2023-01-02T14:03:23.894Z,14.93
2023-01-02T14:05:57.504Z,14.95
2023-01-02T14:08:35.423Z,14.96
2023-01-02T14:11:21.511Z,14.96
2023-01-02T14:13:54.652Z,14.97
2023-01-02T14:16:46.442Z,14.98
2023-01-02T14:19:13.260Z,14.97
2023-01-02T14:21:51.700Z,14.98
2023-01-02T14:24:29.768Z,14.98
2023-01-02T14:27:03.720Z,14.97
2023-01-02T14:29:33.130Z,14.96
2023-01-02T14:32:09.698Z,14.97
2023-01-02T14:34:46.713Z,14.98
2023-01-02T14:37:37.326Z,14.98
2023-01-02T14:40:30.619Z,15.00
2023-01-02T14:43:36.452Z,15.04
2023-01-02T14:46:12.193Z,15.05
2023-01-02T14:48:59.247Z,15.06
2023-01-02T14:51:40.303Z,15.07
2023-01-02T14:54:16.131Z,15.10
2023-01-02T14:56:48.611Z,15.10
2023-01-02T14:59:44.359Z,15.11
2023-01-02T15:02:18.042Z,15.11
2023-01-02T15:04:54.022Z,15.12
2023-01-02T15:07:42.729Z,15.12
2023-01-02T15:10:18.703Z,15.11
2023-01-02T15:13:07.545Z,15.11
2023-01-02T15:15:43.719Z,15.11
2023-01-02T15:18:33.888Z,15.10
2023-01-02T15:21:12.888Z,15.11
2023-01-02T15:23:45.378Z,15.13
2023-01-02T15:26:34.794Z,15.11
2023-01-02T15:29:20.735Z,15.12
2023-01-02T15:32:00.751Z,15.11
2023-01-02T15:34:31.554Z,15.09
2023-01-02T15:37:03.979Z,15.05
2023-01-02T15:39:39.035Z,15.03
2023-01-02T15:42:27.117Z,14.99
2023-01-02T15:45:13.760Z,14.93
2023-01-02T15:47:46.893Z,14.85
2023-01-02T15:50:23.354Z,14.79
2023-01-02T15:53:06.593Z,14.72
2023-01-02T15:55:40.058Z,14.68
2023-01-02T15:58:36.101Z,14.63
2023-01-02T16:01:20.608Z,14.59
2023-01-02T16:04:03.672Z,14.54
2023-01-02T16:06:44.980Z,14.48
2023-01-02T16:09:26.723Z,14.42
2023-01-02T16:11:57.685Z,14.37
2023-01-02T16:14:34.746Z,14.32
2023-01-02T16:17:33.909Z,14.29
2023-01-02T16:20:15.500Z,14.23
2023-01-02T16:22:47.430Z,14.15
2023-01-02T16:25:30.754Z,14.09
2023-01-02T16:28:35.999Z,14.04
2023-01-02T16:31:17.182Z,13.96
2023-01-02T16:33:45.830Z,13.92
2023-01-02T16:36:15.749Z,13.90
2023-01-02T16:38:58.788Z,13.87
2023-01-02T16:41:37.469Z,13.83
2023-01-02T16:44:17.800Z,13.77
2023-01-02T16:46:48.936Z,13.72
2023-01-02T16:49:22.103Z,13.69
2023-01-02T16:51:52.043Z,13.64
2023-01-02T16:54:19.992Z,13.61
2023-01-02T16:56:50.384Z,13.57
2023-01-02T16:59:17.319Z,13.55
2023-01-02T17:01:44.380Z,13.51
2023-01-02T17:04:13.680Z,13.46
2023-01-02T17:06:40.699Z,13.42
2023-01-02T17:09:07.649Z,13.38
2023-01-02T17:11:34.847Z,13.35
2023-01-02T17:14:01.872Z,13.27
2023-01-02T17:16:30.573Z,13.15
2023-01-02T17:18:57.507Z,13.02
2023-01-02T17:21:30.771Z,12.91
2023-01-02T17:23:59.517Z,12.87
2023-01-02T17:26:27.121Z,12.81
2023-01-02T17:28:54.063Z,12.77
2023-01-02T17:31:25.530Z,12.75
2023-01-02T17:33:53.033Z,12.71
2023-01-02T17:36:20.077Z,12.68
2023-01-02T17:38:47.184Z,12.66
2023-01-02T17:41:14.298Z,12.65
2023-01-02T17:44:02.600Z,12.64
2023-01-02T17:47:05.078Z,12.64
2023-01-02T17:49:15.013Z,12.63
2023-01-02T17:51:41.888Z,12.62
2023-01-02T17:54:09.088Z,12.59
2023-01-02T17:56:36.083Z,12.59
2023-01-02T17:59:03.570Z,12.53
2023-01-02T18:01:30.714Z,12.51
2023-01-02T18:03:57.789Z,12.50
2023-01-02T18:06:24.785Z,12.47
2023-01-02T18:08:54.529Z,12.46
2023-01-02T18:11:23.046Z,12.45
2023-01-02T18:13:54.797Z,12.42
2023-01-02T18:16:39.917Z,12.39
2023-01-02T18:19:13.969Z,12.35
2023-01-02T18:21:43.158Z,12.32
2023-01-02T18:24:25.597Z,12.27
2023-01-02T18:27:11.631Z,12.23
2023-01-02T18:29:38.579Z,12.19
2023-01-02T18:32:33.310Z,12.15
2023-01-02T18:35:56.787Z,12.13
2023-01-02T18:38:37.742Z,12.13
2023-01-02T18:41:14.923Z,12.14
2023-01-02T18:43:42.812Z,12.14
2023-01-02T18:46:18.197Z,12.16
2023-01-02T18:48:46.125Z,12.17
2023-01-02T18:51:24.379Z,12.16
2023-01-02T18:53:53.609Z,12.19
2023-01-02T18:56:27.100Z,12.18
2023-01-02T18:59:02.150Z,12.13
2023-01-02T19:01:34.703Z,12.10
2023-01-02T19:04:28.650Z,12.08
2023-01-02T19:07:00.166Z,12.07
2023-01-02T19:09:35.411Z,12.06
2023-01-02T19:12:33.865Z,12.03
2023-01-02T19:15:22.495Z,12.03
2023-01-02T19:17:49.357Z,12.01
2023-01-02T19:20:16.859Z,11.99
2023-01-02T19:22:44.151Z,11.98
2023-01-02T19:25:25.299Z,11.96
2023-01-02T19:27:54.221Z,11.92
2023-01-02T19:30:36.011Z,11.87
2023-01-02T19:33:32.985Z,11.82
2023-01-02T19:36:04.845Z,11.79
2023-01-02T19:38:34.315Z,11.75
2023-01-02T19:41:02.222Z,11.71
2023-01-02T19:43:29.198Z,11.69
2023-01-02T19:45:56.177Z,11.66
2023-01-02T19:48:23.284Z,11.62
2023-01-02T19:50:50.707Z,11.60
2023-01-02T19:53:17.779Z,11.56
2023-01-02T19:55:44.748Z,11.54
2023-01-02T19:58:11.739Z,11.52
2023-01-02T20:00:38.701Z,11.49
2023-01-02T20:03:05.721Z,11.44
2023-01-02T20:05:32.865Z,11.42
2023-01-02T20:07:59.901Z,11.41
2023-01-02T20:10:27.075Z,11.39
2023-01-02T20:12:54.102Z,11.38
2023-01-02T20:15:26.774Z,11.37
2023-01-02T20:17:54.934Z,11.35
2023-01-02T20:20:25.456Z,11.32
2023-01-02T20:22:52.568Z,11.29
2023-01-02T20:25:24.198Z,11.27
2023-01-02T20:27:53.906Z,11.25
2023-01-02T20:30:24.529Z,11.21
2023-01-02T20:32:53.419Z,11.19
2023-01-02T20:35:20.370Z,11.14
2023-01-02T20:37:47.940Z,11.11
2023-01-02T20:40:14.895Z,11.09
2023-01-02T20:42:42.942Z,11.08
2023-01-02T20:45:11.006Z,11.05
2023-01-02T20:47:38.022Z,11.02
2023-01-02T20:50:05.751Z,11.00
2023-01-02T20:52:32.701Z,10.97
2023-01-02T20:54:59.686Z,10.94
2023-01-02T20:57:26.723Z,10.88
2023-01-02T20:59:53.852Z,10.85
2023-01-02T21:02:21.033Z,10.82
2023-01-02T21:04:48.051Z,10.80
2023-01-02T21:07:14.972Z,10.80
2023-01-02T21:09:41.846Z,10.80
2023-01-02T21:12:28.716Z,10.79
2023-01-02T21:14:55.906Z,10.81
2023-01-02T21:17:22.913Z,10.80
2023-01-02T21:19:49.873Z,10.79
2023-01-02T21:22:17.370Z,10.77
2023-01-02T21:24:44.277Z,10.75
2023-01-02T21:27:13.451Z,10.73
2023-01-02T21:29:41.008Z,10.70
2023-01-02T21:32:08.025Z,10.67
2023-01-02T21:34:34.953Z,10.64
2023-01-02T21:37:03.004Z,10.63
2023-01-02T21:39:29.927Z,10.64
2023-01-02T21:42:15.451Z,10.63
2023-01-02T21:44:43.170Z,10.64
2023-01-02T21:47:10.372Z,10.73
2023-01-02T21:49:37.303Z,10.91
2023-01-02T21:52:04.466Z,11.09
2023-01-02T21:54:31.393Z,11.15
2023-01-02T21:56:58.341Z,11.06
2023-01-02T21:59:26.421Z,10.93
2023-01-02T22:01:54.645Z,10.83
2023-01-02T22:04:23.093Z,10.74
2023-01-02T22:07:30.243Z,10.69
2023-01-02T22:09:37.246Z,10.65
2023-01-02T22:12:07.105Z,10.58
2023-01-02T22:14:37.292Z,10.54
2023-01-02T22:17:10.430Z,10.49
2023-01-02T22:19:38.044Z,10.46
2023-01-02T22:22:05.718Z,10.42
2023-01-02T22:24:36.567Z,10.40
2023-01-02T22:27:09.290Z,10.36
2023-01-02T22:30:09.706Z,10.34
2023-01-02T22:32:23.842Z,10.33
2023-01-02T22:34:51.246Z,10.34
2023-01-02T22:37:22.729Z,10.35
2023-01-02T22:39:50.499Z,10.35
2023-01-02T22:45:31.930Z,10.28
2023-01-02T22:48:03.557Z,10.22
2023-01-02T22:50:40.240Z,10.18
2023-01-02T22:53:23.662Z,10.17
2023-01-02T22:55:51.218Z,10.17
2023-01-02T22:58:18.919Z,10.15
2023-01-02T23:00:55.815Z,10.12
2023-01-02T23:03:22.772Z,10.06
2023-01-02T23:05:49.727Z,9.99
2023-01-02T23:08:16.714Z,9.92
2023-01-02T23:10:43.682Z,9.86
2023-01-02T23:13:10.996Z,9.81
2023-01-02T23:15:59.633Z,9.76
2023-01-02T23:18:45.295Z,9.72
2023-01-02T23:21:12.400Z,9.74
2023-01-02T23:23:39.435Z,9.75
2023-01-02T23:26:07.570Z,9.78
2023-01-02T23:29:05.071Z,9.84
2023-01-02T23:31:21.910Z,9.90
2023-01-02T23:33:48.780Z,9.97
2023-01-02T23:36:15.672Z,10.02
2023-01-02T23:38:43.131Z,10.03
2023-01-02T23:41:10.049Z,10.02
2023-01-02T23:43:36.991Z,9.98
2023-01-02T23:46:03.957Z,9.95
2023-01-02T23:48:30.936Z,9.92
2023-01-02T23:51:02.154Z,9.89
2023-01-02T23:53:29.173Z,9.88
2023-01-02T23:55:56.381Z,9.82
2023-01-02T23:58:23.997Z,9.75
